Newark, NJ

05:57 EDT dnia 26-kwiecień-2017 (GMT -0400)
Central Business District | | Change Station

Wysokość 62 ft 40.74 °N, 74.17 °W | Updated 6 minutes ago

pochmurno
pochmurno
52.9 ° F
Odczuwalna 52.9 ° F
Płn.
0.6
Wiatr zmienny Wiatr od PnZd
Gusts 1.2 mph

Dziś
Wysoka -- | Niska -- ° F
--% Prawdop. opadów
Wczoraj
Wysoka -- | Niska -- ° F
Precip. -- cali
Ciśnienie 29.74 cali
Widzialność 7.0 mil
chmury przewaga chmur 500 ft
przewaga chmur 2500 ft
pochmurno 7000 ft
Punkt rosy 53 ° F
Wilgotność 100%
Opady deszczu 0.03 cali
grubość pokrywy śnieżnej Niedostępne.
6:01 AM 7:47 PM
Zmniejszający się sierp Księżyca, 0% visible
SPECI KEWR 260949Z 02015KT 7SM -RA BKN005 BKN025 OVC070 12/12 A2974 RMK AO2 P0000 $
Ciśnienie 29.74 cali
Widzialność 7.0 mil
chmury przewaga chmur 500 ft
przewaga chmur 2500 ft
pochmurno 7000 ft
Punkt rosy 53 ° F
Wilgotność 100%
Opady deszczu 0.03 cali
grubość pokrywy śnieżnej Niedostępne.
6:01 AM 7:47 PM
Zmniejszający się sierp Księżyca, 0% visible
SPECI KEWR 260949Z 02015KT 7SM -RA BKN005 BKN025 OVC070 12/12 A2974 RMK AO2 P0000 $

Get Severe Weather Alerts

Thanks for signing up!

Be on the lookout for a verification email in your inbox.

You'll start receiving the daily forecast at 8 AM.

×

10-Day Weather Forecast

Almanac

Astronomia

Apr. 26, 2017 Wschód Zachów
Aktualny czas
Zmierzch cywilny
Zmierzch żeglarski
świt/zmierzch astronomiczny
Księżyc
całkowite oświetlenie
Długość dnia
Tomorrow will be .
, % of the Moon is Illuminated

Dzisiejsze ekstrema

State Highs State Lows

Community

WunderPhotos

WunderBlog® & News

Nearby

Jakość powietrza

  Jakość powietrza czynnik AQ Zanieczyszczenie
Not available.

Głębokość pokrywy śnieżnej

Station Depth n.p.m.

Aktywność sejsmiczna

Miejscowość Distance Mag. Time & Date
Minimum magnitude displayed is 2.5.

Temperatury wody na wybrzeżu

Miejsce Temperatura

Stations

Najbliższa stacja pogodowa

Lokalizacja stacji Temp. czynnik chłodzący wiatru Punkt rosy Wilgotność Wiatr Precip. Wysokość Uaktualniono Typ
                   

Watches & Warnings

There are currently no watches in effect.